Time;durP1;ratioP1;P1;durP2;ratioP2;P2;SDS_P1;SDS_P2;PMS_P1;PMS_P2;Temp;Humidity;BMP_temperature;BMP_pressure;BME280_temperature;BME280_humidity;BME280_pressure;Samples;Min_cycle;Max_cycle;Signal;HPM_P1;HPM_P2
2023/02/04 00:01:54;;;;;;;27.27;4.85;;;8.80;99.90;;;;;;4099480;28;20439;-71
2023/02/04 00:03:54;;;;;;;23.27;4.60;;;8.80;99.90;;;;;;4094549;28;20975;-72
2023/02/04 00:05:55;;;;;;;26.45;4.47;;;8.80;99.90;;;;;;4093986;28;20525;-71
2023/02/04 00:07:55;;;;;;;23.83;4.55;;;8.80;99.90;;;;;;4101120;28;20026;-71
2023/02/04 00:09:56;;;;;;;16.50;3.63;;;8.80;99.90;;;;;;4095779;28;20054;-70
2023/02/04 00:11:57;;;;;;;20.67;4.45;;;8.80;99.90;;;;;;4099396;28;20434;-71
2023/02/04 00:13:57;;;;;;;19.05;4.05;;;8.90;99.90;;;;;;4102275;28;20031;-71
2023/02/04 00:15:58;;;;;;;11.25;3.30;;;8.90;99.90;;;;;;4096552;28;20166;-71
2023/02/04 00:17:58;;;;;;;24.05;4.55;;;8.90;99.90;;;;;;4097877;28;20027;-71
2023/02/04 00:19:59;;;;;;;14.50;3.58;;;8.90;99.90;;;;;;4097840;28;20015;-71
2023/02/04 00:22:00;;;;;;;17.40;4.28;;;8.90;99.90;;;;;;4096274;28;20079;-71
2023/02/04 00:24:01;;;;;;;22.77;4.30;;;8.90;99.90;;;;;;4097996;28;20028;-71
2023/02/04 00:26:01;;;;;;;26.13;4.60;;;8.90;99.90;;;;;;4097869;28;20500;-71
2023/02/04 00:28:02;;;;;;;18.52;3.80;;;8.90;99.90;;;;;;4097872;28;20039;-71
2023/02/04 00:30:04;;;;;;;21.27;4.53;;;8.90;99.90;;;;;;4096440;28;20110;-72
2023/02/04 00:32:05;;;;;;;20.30;4.57;;;8.90;99.90;;;;;;4095006;28;20024;-68
2023/02/04 00:34:06;;;;;;;15.63;3.95;;;8.90;99.90;;;;;;4097805;28;20375;-69
2023/02/04 00:36:06;;;;;;;23.83;5.22;;;8.90;99.90;;;;;;4095742;28;20031;-70
2023/02/04 00:38:07;;;;;;;27.52;4.55;;;8.90;99.90;;;;;;4095544;28;20027;-71
2023/02/04 00:40:08;;;;;;;23.83;4.78;;;8.90;99.90;;;;;;4098077;28;20042;-72
2023/02/04 00:42:09;;;;;;;20.40;4.30;;;8.90;99.90;;;;;;4098430;28;20039;-71
2023/02/04 00:44:10;;;;;;;13.73;3.35;;;8.80;99.90;;;;;;4095215;28;20043;-71
2023/02/04 00:46:10;;;;;;;27.25;5.10;;;8.90;99.90;;;;;;4094954;28;20102;-71
2023/02/04 00:48:11;;;;;;;18.02;3.60;;;8.80;99.90;;;;;;4096384;28;20097;-71
2023/02/04 00:50:12;;;;;;;18.23;3.60;;;8.90;99.90;;;;;;4095581;28;20031;-72
2023/02/04 00:52:12;;;;;;;19.05;3.80;;;8.90;99.90;;;;;;4095154;28;20399;-70
2023/02/04 00:54:14;;;;;;;16.65;3.75;;;8.80;99.90;;;;;;4097178;28;20082;-69
2023/02/04 00:56:15;;;;;;;14.93;3.60;;;8.80;99.90;;;;;;4093548;28;20487;-71
2023/02/04 00:58:15;;;;;;;20.00;4.70;;;8.80;99.90;;;;;;4095112;28;20038;-70
2023/02/04 01:00:17;;;;;;;29.98;5.68;;;8.80;99.90;;;;;;4097329;28;20031;-70
2023/02/04 01:02:17;;;;;;;26.05;5.65;;;8.70;99.90;;;;;;4095161;28;20040;-71
2023/02/04 01:04:18;;;;;;;17.15;4.07;;;8.70;99.90;;;;;;4097349;28;20110;-71
2023/02/04 01:06:18;;;;;;;27.00;4.72;;;8.70;99.90;;;;;;4095092;28;20064;-71
2023/02/04 01:08:19;;;;;;;25.42;4.95;;;8.70;99.90;;;;;;4095145;28;20443;-70
2023/02/04 01:10:20;;;;;;;25.90;5.07;;;8.70;99.90;;;;;;4094075;28;20035;-71
2023/02/04 01:12:21;;;;;;;22.95;4.72;;;8.70;99.90;;;;;;4099614;28;20394;-71
2023/02/04 01:14:22;;;;;;;20.55;3.67;;;8.70;99.90;;;;;;4095229;28;20030;-70
2023/02/04 01:16:23;;;;;;;22.88;4.28;;;8.60;99.90;;;;;;4091547;28;20427;-71
2023/02/04 01:18:23;;;;;;;23.02;4.95;;;8.70;99.90;;;;;;4096901;28;20043;-71
2023/02/04 01:20:24;;;;;;;29.92;5.35;;;8.60;99.90;;;;;;4091872;28;20102;-70
2023/02/04 01:22:24;;;;;;;21.98;4.07;;;8.60;99.90;;;;;;4094899;28;20035;-71
2023/02/04 01:24:25;;;;;;;17.92;3.90;;;8.60;99.90;;;;;;4094510;28;20063;-71
2023/02/04 01:26:26;;;;;;;23.27;5.18;;;8.60;99.90;;;;;;4094754;28;20047;-71
2023/02/04 01:28:26;;;;;;;24.08;3.90;;;8.60;99.90;;;;;;4095537;28;20119;-71
2023/02/04 01:30:27;;;;;;;18.40;3.90;;;8.50;99.90;;;;;;4095049;28;20030;-71
2023/02/04 01:32:27;;;;;;;16.27;3.45;;;8.60;99.90;;;;;;4096359;28;20439;-71
2023/02/04 01:34:30;;;;;;;27.13;4.68;;;8.60;99.90;;;;;;4094430;28;20043;-71
2023/02/04 01:36:30;;;;;;;;;;;8.60;99.90;;;;;;4093657;28;20114;-71
2023/02/04 01:38:31;;;;;;;23.52;4.00;;;8.50;99.90;;;;;;4096181;28;19910;-71
2023/02/04 01:40:31;;;;;;;20.77;4.05;;;8.40;99.90;;;;;;4093390;28;20106;-71
2023/02/04 01:42:32;;;;;;;20.40;3.72;;;8.50;99.90;;;;;;4095129;28;20522;-71
2023/02/04 01:44:33;;;;;;;17.70;3.38;;;8.50;99.90;;;;;;4095002;28;20047;-71
2023/02/04 01:46:36;;;;;;;17.33;3.65;;;8.50;99.90;;;;;;4092470;28;20040;-71
2023/02/04 01:48:37;;;;;;;26.23;4.53;;;8.50;99.90;;;;;;4094430;28;20072;-70
2023/02/04 01:50:38;;;;;;;16.83;4.20;;;8.50;99.90;;;;;;4094195;28;20035;-70
2023/02/04 01:52:39;;;;;;;11.75;3.13;;;8.50;99.90;;;;;;4094815;28;20043;-70
2023/02/04 01:54:40;;;;;;;14.13;3.13;;;8.50;99.90;;;;;;4094657;28;20094;-71
2023/02/04 01:56:45;;;;;;;15.30;3.17;;;8.50;99.90;;;;;;4093121;28;20491;-71
2023/02/04 01:58:46;;;;;;;19.63;4.50;;;8.50;99.90;;;;;;4093481;28;20063;-70
2023/02/04 02:00:47;;;;;;;15.07;3.30;;;8.50;99.90;;;;;;4092251;28;20042;-70
2023/02/04 02:02:50;;;;;;;17.60;3.83;;;8.60;99.90;;;;;;4093255;28;20122;-71
2023/02/04 02:04:50;;;;;;;19.52;4.13;;;8.60;99.90;;;;;;4094032;28;20426;-70
2023/02/04 02:06:54;;;;;;;14.80;3.10;;;8.50;99.90;;;;;;4091352;28;20097;-71
2023/02/04 02:08:55;;;;;;;18.98;3.80;;;8.60;99.90;;;;;;4094239;28;20051;-70
2023/02/04 02:10:55;;;;;;;23.42;4.10;;;8.60;99.90;;;;;;4094983;28;20058;-70
2023/02/04 02:12:56;;;;;;;23.48;3.90;;;8.60;99.90;;;;;;4095423;28;20054;-71
2023/02/04 02:14:57;;;;;;;24.20;4.20;;;8.60;99.90;;;;;;4093809;28;20046;-71
2023/02/04 02:16:58;;;;;;;19.23;4.00;;;8.50;99.90;;;;;;4095560;28;20395;-71
2023/02/04 02:18:59;;;;;;;15.90;3.22;;;8.50;99.90;;;;;;4093606;28;20033;-71
2023/02/04 02:21:04;;;;;;;19.02;4.93;;;8.50;99.90;;;;;;4095693;28;20033;-70
2023/02/04 02:23:13;;;;;;;18.95;4.10;;;8.60;99.90;;;;;;4094738;28;20110;-71
2023/02/04 02:25:14;;;;;;;18.63;3.80;;;8.60;99.90;;;;;;4090774;28;20091;-70
2023/02/04 02:27:15;;;;;;;14.95;3.92;;;8.60;99.90;;;;;;4093730;28;20067;-70
2023/02/04 02:29:15;;;;;;;20.13;3.80;;;8.60;99.90;;;;;;4094067;28;21004;-69
2023/02/04 02:31:18;;;;;;;15.55;3.25;;;8.50;99.90;;;;;;4091740;28;20031;-70
2023/02/04 02:33:20;;;;;;;13.73;3.70;;;8.50;99.90;;;;;;4095046;28;20483;-71
2023/02/04 02:35:21;;;;;;;15.27;3.65;;;8.60;99.90;;;;;;4092397;28;20035;-70
2023/02/04 02:37:21;;;;;;;18.75;3.60;;;8.60;99.90;;;;;;4089144;28;20114;-71
2023/02/04 02:39:22;;;;;;;16.20;3.35;;;8.50;99.90;;;;;;4091745;28;20082;-70
2023/02/04 02:41:23;;;;;;;12.02;3.50;;;8.50;99.90;;;;;;4092559;28;20039;-71
2023/02/04 02:43:27;;;;;;;22.50;4.00;;;8.50;99.90;;;;;;4092921;28;20533;-71
2023/02/04 02:45:29;;;;;;;17.50;3.47;;;8.50;99.90;;;;;;4092708;28;20046;-71
2023/02/04 02:47:30;;;;;;;;;;;8.50;99.90;;;;;;4093864;28;20032;-71
2023/02/04 02:49:32;;;;;;;17.95;3.40;;;8.40;99.90;;;;;;4095852;28;20421;-70
2023/02/04 02:51:32;;;;;;;20.00;4.15;;;8.40;99.90;;;;;;4093568;28;20043;-71
2023/02/04 02:53:33;;;;;;;20.40;4.15;;;8.40;99.90;;;;;;4092015;28;20580;-71
2023/02/04 02:55:34;;;;;;;13.38;3.20;;;8.40;99.90;;;;;;4093573;28;20066;-71
2023/02/04 02:57:34;;;;;;;15.02;3.55;;;8.40;99.90;;;;;;4093354;28;20379;-70
2023/02/04 02:59:35;;;;;;;10.18;2.70;;;8.40;99.90;;;;;;4092855;28;20038;-71
2023/02/04 03:01:35;;;;;;;17.65;4.20;;;8.40;99.90;;;;;;4093797;28;20039;-71
2023/02/04 03:03:44;;;;;;;19.75;4.47;;;8.40;99.90;;;;;;4093198;28;20588;-73
2023/02/04 03:05:47;;;;;;;11.68;2.92;;;8.30;99.90;;;;;;4091033;28;20507;-70
2023/02/04 03:07:47;;;;;;;;;;;8.30;99.90;;;;;;4094157;28;20043;-70
2023/02/04 03:09:48;;;;;;;19.40;3.35;;;8.40;99.90;;;;;;4092468;28;20271;-70
2023/02/04 03:11:48;;;;;;;13.98;3.13;;;8.30;99.90;;;;;;4093083;28;20042;-70
2023/02/04 03:13:50;;;;;;;18.70;3.88;;;8.30;99.90;;;;;;4094002;28;20039;-70
2023/02/04 03:15:51;;;;;;;13.88;3.42;;;8.30;99.90;;;;;;4090477;28;20046;-70
2023/02/04 03:17:55;;;;;;;22.60;3.72;;;8.30;99.90;;;;;;4097394;28;20047;-70
2023/02/04 03:19:55;;;;;;;16.27;3.90;;;8.30;99.90;;;;;;4096338;28;20047;-71
2023/02/04 03:21:57;;;;;;;21.17;3.88;;;8.30;99.90;;;;;;4094053;28;20067;-71
2023/02/04 03:23:58;;;;;;;25.23;4.55;;;8.30;99.90;;;;;;4094610;28;20151;-71
2023/02/04 03:25:59;;;;;;;19.33;3.63;;;8.30;99.90;;;;;;4091265;28;20035;-72
2023/02/04 03:28:00;;;;;;;19.23;3.53;;;8.20;99.90;;;;;;4093077;28;20449;-71
2023/02/04 03:30:00;;;;;;;14.55;3.38;;;8.20;99.90;;;;;;4095437;28;20027;-71
2023/02/04 03:32:05;;;;;;;16.77;3.92;;;8.20;99.90;;;;;;4094272;28;20576;-70
2023/02/04 03:34:06;;;;;;;22.08;3.55;;;8.20;99.90;;;;;;4093974;28;20053;-71
2023/02/04 03:36:07;;;;;;;15.20;3.45;;;8.20;99.90;;;;;;4093290;28;20035;-69
2023/02/04 03:38:08;;;;;;;21.83;3.65;;;8.20;99.90;;;;;;4099316;28;20027;-70
2023/02/04 03:40:09;;;;;;;16.88;3.63;;;8.20;99.90;;;;;;4097469;28;20449;-72
2023/02/04 03:42:10;;;;;;;23.48;4.28;;;8.20;99.90;;;;;;4099502;28;20495;-70
2023/02/04 03:44:11;;;;;;;17.00;3.50;;;8.10;99.90;;;;;;4103024;28;20027;-71
2023/02/04 03:46:11;;;;;;;17.85;4.25;;;8.10;99.90;;;;;;4095377;28;20035;-71
2023/02/04 03:48:12;;;;;;;12.45;2.90;;;8.10;99.90;;;;;;4100698;28;20027;-70
2023/02/04 03:50:13;;;;;;;25.70;4.72;;;8.10;99.90;;;;;;4098645;28;20020;-71
2023/02/04 03:52:13;;;;;;;19.20;4.20;;;8.10;99.90;;;;;;4097354;28;20031;-70
2023/02/04 03:54:14;;;;;;;25.77;4.05;;;8.20;99.90;;;;;;4097412;28;20387;-70
2023/02/04 03:56:15;;;;;;;19.00;3.80;;;8.10;99.90;;;;;;4099213;28;20114;-70
2023/02/04 03:58:15;;;;;;;22.45;4.20;;;8.10;99.90;;;;;;4100067;28;20031;-70
2023/02/04 04:00:16;;;;;;;14.63;3.13;;;8.10;99.90;;;;;;4097621;28;20044;-69
2023/02/04 04:02:17;;;;;;;29.52;4.20;;;8.10;99.90;;;;;;4096466;28;20961;-70
2023/02/04 04:04:18;;;;;;;17.42;3.90;;;8.10;99.90;;;;;;4093408;28;20043;-70
2023/02/04 04:06:19;;;;;;;11.35;3.10;;;8.00;99.90;;;;;;4093060;28;20051;-70
2023/02/04 04:08:19;;;;;;;22.92;4.40;;;8.10;99.90;;;;;;4097444;28;21242;-70
2023/02/04 04:10:20;;;;;;;15.05;3.85;;;8.00;99.90;;;;;;4095317;28;20058;-70
2023/02/04 04:12:21;;;;;;;16.42;3.47;;;8.10;99.90;;;;;;4093806;28;20483;-70
2023/02/04 04:14:21;;;;;;;21.42;4.25;;;8.00;99.90;;;;;;4073240;28;20074;-70
2023/02/04 04:16:22;;;;;;;12.30;3.22;;;8.00;99.90;;;;;;4094635;28;20028;-71
2023/02/04 04:18:22;;;;;;;22.27;4.28;;;8.00;99.90;;;;;;4099249;28;20043;-70
2023/02/04 04:20:26;;;;;;;18.15;3.58;;;7.90;99.90;;;;;;4099121;28;20054;-70
2023/02/04 04:22:27;;;;;;;15.50;3.25;;;7.90;99.90;;;;;;4098100;28;20032;-70
2023/02/04 04:24:28;;;;;;;17.58;3.50;;;7.90;99.90;;;;;;4097073;28;20053;-70
2023/02/04 04:26:28;;;;;;;23.63;3.53;;;7.90;99.90;;;;;;4094361;28;20039;-70
2023/02/04 04:28:29;;;;;;;19.83;3.55;;;7.90;99.90;;;;;;4098655;28;20039;-71
2023/02/04 04:30:29;;;;;;;14.20;2.97;;;7.90;99.90;;;;;;4094809;28;20085;-71
2023/02/04 04:32:30;;;;;;;16.95;3.58;;;7.90;99.90;;;;;;4099310;28;20048;-71
2023/02/04 04:34:30;;;;;;;17.38;3.38;;;8.00;99.90;;;;;;4094867;28;20122;-71
2023/02/04 04:36:31;;;;;;;13.00;3.75;;;8.00;99.90;;;;;;4093598;28;20490;-70
2023/02/04 04:38:32;;;;;;;32.05;5.25;;;8.00;99.90;;;;;;4094928;28;20513;-71
2023/02/04 04:40:32;;;;;;;19.92;4.38;;;7.90;99.90;;;;;;4097263;28;20045;-71
2023/02/04 04:42:33;;;;;;;15.75;4.55;;;7.90;99.90;;;;;;4093824;28;20475;-71
2023/02/04 04:44:33;;;;;;;15.73;3.70;;;7.90;99.90;;;;;;4091895;28;20391;-71
2023/02/04 04:46:34;;;;;;;20.38;4.07;;;7.90;99.90;;;;;;4096193;28;20039;-71
2023/02/04 04:48:34;;;;;;;19.85;3.90;;;7.90;99.90;;;;;;4095132;28;20043;-71
2023/02/04 04:50:35;;;;;;;17.92;3.33;;;7.90;99.90;;;;;;4096322;28;20475;-70
2023/02/04 04:52:35;;;;;;;26.30;4.68;;;7.90;99.90;;;;;;4096599;28;20449;-71
2023/02/04 04:54:36;;;;;;;13.85;3.47;;;7.90;99.90;;;;;;4092646;28;20115;-69
2023/02/04 04:56:37;;;;;;;16.23;3.70;;;7.90;99.90;;;;;;4096983;28;20046;-71
2023/02/04 04:58:37;;;;;;;17.17;4.10;;;7.90;99.90;;;;;;4099549;28;20042;-70
2023/02/04 05:00:38;;;;;;;14.68;3.78;;;7.90;99.90;;;;;;4096383;28;20114;-71
2023/02/04 05:02:38;;;;;;;16.20;3.33;;;8.00;99.90;;;;;;4091000;28;20034;-71
2023/02/04 05:04:39;;;;;;;17.60;3.50;;;8.00;99.90;;;;;;4092438;28;20042;-70
2023/02/04 05:06:39;;;;;;;18.60;3.42;;;8.00;99.90;;;;;;4092430;28;20030;-70
2023/02/04 05:08:40;;;;;;;22.88;4.30;;;8.00;99.90;;;;;;4092304;28;20051;-70
2023/02/04 05:10:42;;;;;;;15.35;3.92;;;8.00;99.90;;;;;;4092476;28;20491;-70
2023/02/04 05:12:42;;;;;;;21.63;4.60;;;8.00;99.90;;;;;;4091386;28;21118;-70
2023/02/04 05:14:43;;;;;;;14.27;3.63;;;8.00;99.90;;;;;;4092746;28;20461;-71
2023/02/04 05:16:43;;;;;;;20.08;4.43;;;8.00;99.90;;;;;;4076114;29;20040;-71
2023/02/04 05:18:44;;;;;;;23.15;4.50;;;8.00;99.90;;;;;;4090901;28;20055;-71
2023/02/04 05:20:45;;;;;;;20.75;4.22;;;8.00;99.90;;;;;;4096256;28;20126;-71
2023/02/04 05:22:45;;;;;;;15.05;3.83;;;8.00;99.90;;;;;;4095102;28;20034;-71
2023/02/04 05:24:46;;;;;;;15.15;3.40;;;8.00;99.90;;;;;;4096241;28;20121;-69
2023/02/04 05:26:46;;;;;;;14.35;3.58;;;8.00;99.90;;;;;;4089590;28;20047;-70
2023/02/04 05:28:47;;;;;;;22.55;4.00;;;8.00;99.90;;;;;;4093383;28;20105;-70
2023/02/04 05:30:48;;;;;;;14.00;3.92;;;8.00;99.90;;;;;;4090669;28;20036;-70
2023/02/04 05:32:48;;;;;;;18.95;3.83;;;8.00;99.90;;;;;;4099412;28;20054;-70
2023/02/04 05:34:49;;;;;;;19.02;4.22;;;8.00;99.90;;;;;;4093924;28;20566;-70
2023/02/04 05:36:49;;;;;;;15.30;3.60;;;8.10;99.90;;;;;;4092607;28;20849;-70
2023/02/04 05:38:50;;;;;;;12.38;3.15;;;8.00;99.90;;;;;;4097745;28;20054;-71
2023/02/04 05:40:51;;;;;;;11.38;3.28;;;8.00;99.90;;;;;;4096118;28;20512;-70
2023/02/04 05:42:51;;;;;;;14.32;3.60;;;8.10;99.90;;;;;;4094320;28;20050;-70
2023/02/04 05:44:52;;;;;;;19.80;4.35;;;8.10;99.90;;;;;;4095401;28;20050;-70
2023/02/04 05:46:52;;;;;;;20.42;3.58;;;8.10;99.90;;;;;;4093776;28;20039;-70
2023/02/04 05:48:53;;;;;;;13.77;3.42;;;8.10;99.90;;;;;;4096432;28;20146;-71
2023/02/04 05:50:53;;;;;;;14.55;3.05;;;8.10;99.90;;;;;;4095609;28;20114;-70
2023/02/04 05:52:55;;;;;;;15.98;3.35;;;8.10;99.90;;;;;;4077558;29;20028;-70
2023/02/04 05:54:55;;;;;;;16.85;3.90;;;8.10;99.90;;;;;;4094382;28;20399;-70
2023/02/04 05:56:56;;;;;;;16.75;2.88;;;8.10;99.90;;;;;;4096253;28;20043;-71
2023/02/04 05:58:56;;;;;;;14.43;3.85;;;8.10;99.90;;;;;;4092843;28;20031;-70
2023/02/04 06:01:01;;;;;;;14.95;3.60;;;8.20;99.90;;;;;;4092704;28;20461;-70
2023/02/04 06:03:01;;;;;;;13.88;3.28;;;8.10;99.90;;;;;;4095916;28;20047;-70
2023/02/04 06:05:02;;;;;;;12.68;3.13;;;8.20;99.90;;;;;;4094181;28;20035;-70
2023/02/04 06:07:03;;;;;;;14.75;3.78;;;8.20;99.90;;;;;;4092714;28;20431;-71
2023/02/04 06:09:03;;;;;;;17.65;3.53;;;8.20;99.90;;;;;;4093108;28;20043;-70
2023/02/04 06:11:04;;;;;;;12.00;3.15;;;8.20;99.90;;;;;;4093208;28;20031;-71
2023/02/04 06:13:05;;;;;;;12.43;3.55;;;8.20;99.90;;;;;;4095001;28;20035;-71
2023/02/04 06:15:06;;;;;;;25.17;4.55;;;8.20;99.90;;;;;;4094681;28;20090;-72
2023/02/04 06:17:06;;;;;;;16.33;3.58;;;8.20;99.90;;;;;;4093068;28;20035;-69
2023/02/04 06:19:07;;;;;;;17.80;4.25;;;8.10;99.90;;;;;;4093954;28;20034;-69
2023/02/04 06:21:08;;;;;;;14.50;3.53;;;8.20;99.90;;;;;;4087066;28;20043;-70
2023/02/04 06:23:08;;;;;;;13.98;3.60;;;8.20;99.90;;;;;;4082535;28;20126;-70
2023/02/04 06:25:09;;;;;;;12.27;2.85;;;8.20;99.90;;;;;;4083317;28;20046;-72
2023/02/04 06:27:09;;;;;;;20.58;4.22;;;8.20;99.90;;;;;;4078827;29;20087;-70
2023/02/04 06:29:10;;;;;;;22.27;4.75;;;8.20;99.90;;;;;;4092194;28;20027;-71
2023/02/04 06:31:10;;;;;;;16.23;4.00;;;8.20;99.90;;;;;;4096031;28;20033;-71
2023/02/04 06:33:11;;;;;;;12.00;3.20;;;8.10;99.90;;;;;;4093232;28;20031;-70
2023/02/04 06:35:13;;;;;;;11.68;2.97;;;8.10;99.90;;;;;;4090338;28;20046;-73
2023/02/04 06:37:15;;;;;;;14.50;2.95;;;8.10;99.90;;;;;;4090215;28;20035;-71
2023/02/04 06:39:16;;;;;;;11.20;2.80;;;8.10;99.90;;;;;;4089146;28;20039;-70
2023/02/04 06:41:17;;;;;;;16.50;3.35;;;8.10;99.90;;;;;;4090327;28;20048;-70
2023/02/04 06:43:18;;;;;;;12.45;3.30;;;8.20;99.90;;;;;;4090226;28;20043;-70
2023/02/04 06:45:19;;;;;;;11.60;2.97;;;8.20;99.90;;;;;;4088919;28;20039;-70
2023/02/04 06:47:20;;;;;;;18.30;3.65;;;8.20;99.90;;;;;;4092352;28;20380;-70
2023/02/04 06:49:21;;;;;;;12.30;3.53;;;8.20;99.90;;;;;;4091703;28;20042;-70
2023/02/04 06:51:21;;;;;;;10.98;2.95;;;8.20;99.90;;;;;;4092381;28;20050;-71
2023/02/04 06:53:22;;;;;;;17.67;4.35;;;8.20;99.90;;;;;;4090755;28;20035;-71
2023/02/04 06:55:22;;;;;;;8.27;2.63;;;8.30;99.90;;;;;;4090270;28;20039;-70
2023/02/04 06:57:23;;;;;;;16.75;3.28;;;8.30;99.90;;;;;;4090432;28;20054;-70
2023/02/04 06:59:26;;;;;;;18.77;3.80;;;8.30;99.90;;;;;;4093705;28;20066;-70
2023/02/04 07:01:27;;;;;;;23.45;4.65;;;8.30;99.90;;;;;;4074159;29;20039;-70
2023/02/04 07:03:27;;;;;;;9.45;3.13;;;8.30;99.90;;;;;;4092691;28;20497;-70
2023/02/04 07:05:28;;;;;;;14.20;3.55;;;8.30;99.90;;;;;;4091110;28;20039;-70
2023/02/04 07:07:28;;;;;;;14.02;3.65;;;8.30;99.90;;;;;;4087419;28;20054;-70
2023/02/04 07:09:29;;;;;;;12.18;3.63;;;8.20;99.90;;;;;;4093676;28;20043;-69
2023/02/04 07:11:30;;;;;;;16.02;4.05;;;8.20;99.90;;;;;;4091897;28;20046;-71
2023/02/04 07:13:30;;;;;;;16.08;3.83;;;8.20;99.90;;;;;;4089099;28;20039;-71
2023/02/04 07:15:31;;;;;;;14.68;3.60;;;8.30;99.90;;;;;;4097529;28;20612;-70
2023/02/04 07:17:31;;;;;;;12.40;3.25;;;8.30;99.90;;;;;;4099920;28;20031;-70
2023/02/04 07:19:32;;;;;;;13.80;3.58;;;8.30;99.90;;;;;;4091039;28;20043;-70
2023/02/04 07:21:33;;;;;;;14.68;4.25;;;8.30;99.90;;;;;;4093511;28;20119;-69
2023/02/04 07:23:33;;;;;;;18.83;3.92;;;8.30;99.90;;;;;;4097496;28;20105;-70
2023/02/04 07:25:34;;;;;;;17.52;3.83;;;8.30;99.90;;;;;;4090497;28;20090;-70
2023/02/04 07:27:34;;;;;;;14.68;3.25;;;8.30;99.90;;;;;;4093309;28;20051;-70
2023/02/04 07:29:35;;;;;;;16.33;3.88;;;8.30;99.90;;;;;;4096598;28;20057;-70
2023/02/04 07:31:36;;;;;;;12.82;3.55;;;8.20;99.90;;;;;;4093631;28;20039;-70
2023/02/04 07:33:36;;;;;;;12.77;3.20;;;8.20;99.90;;;;;;4098479;28;20521;-70
2023/02/04 07:35:37;;;;;;;12.15;3.75;;;8.30;99.90;;;;;;4093937;28;20031;-71
2023/02/04 07:37:37;;;;;;;12.05;3.88;;;8.20;99.90;;;;;;4094963;28;20043;-70
2023/02/04 07:39:38;;;;;;;15.25;3.75;;;8.30;99.90;;;;;;4094906;28;20131;-70
2023/02/04 07:41:38;;;;;;;22.88;4.18;;;8.30;99.90;;;;;;4092760;28;20034;-69
2023/02/04 07:43:39;;;;;;;16.02;3.83;;;8.30;99.90;;;;;;4089824;28;20059;-70
2023/02/04 07:45:40;;;;;;;17.80;4.28;;;8.30;99.90;;;;;;4093103;28;20509;-70
2023/02/04 07:47:40;;;;;;;22.05;4.50;;;8.30;99.90;;;;;;4094422;28;20466;-70
2023/02/04 07:49:41;;;;;;;16.40;4.82;;;8.20;99.90;;;;;;4093213;28;20039;-70
2023/02/04 07:51:41;;;;;;;23.25;5.35;;;8.30;99.90;;;;;;4096351;28;20028;-70
2023/02/04 07:53:42;;;;;;;19.67;4.40;;;8.30;99.90;;;;;;4096023;28;20127;-70
2023/02/04 07:55:43;;;;;;;16.95;4.18;;;8.20;99.90;;;;;;4094789;28;20093;-70
2023/02/04 07:57:44;;;;;;;13.90;3.90;;;8.20;99.90;;;;;;4094404;28;20039;-70
2023/02/04 07:59:44;;;;;;;13.20;3.67;;;8.20;99.90;;;;;;4087544;28;20513;-69
2023/02/04 08:01:46;;;;;;;18.60;4.15;;;8.30;99.90;;;;;;4096194;28;20483;-70
2023/02/04 08:03:47;;;;;;;15.43;4.47;;;8.30;99.90;;;;;;4098827;28;20043;-70
2023/02/04 08:05:47;;;;;;;16.15;3.95;;;8.30;99.90;;;;;;4091407;28;20503;-70
2023/02/04 08:07:48;;;;;;;12.15;4.13;;;8.30;99.90;;;;;;4096046;28;20521;-70
2023/02/04 08:09:48;;;;;;;15.65;3.97;;;8.30;99.90;;;;;;4090915;28;20083;-71
2023/02/04 08:11:49;;;;;;;21.38;4.30;;;8.30;99.90;;;;;;4095410;28;20035;-70
2023/02/04 08:13:50;;;;;;;16.60;4.40;;;8.30;99.90;;;;;;4090573;28;20037;-70
2023/02/04 08:15:50;;;;;;;17.48;4.28;;;8.30;99.90;;;;;;4093256;28;20027;-70
2023/02/04 08:17:51;;;;;;;15.80;4.40;;;8.30;99.90;;;;;;4100580;28;20044;-70
2023/02/04 08:19:52;;;;;;;16.15;4.28;;;8.40;99.90;;;;;;4096870;28;20031;-71
2023/02/04 08:21:53;;;;;;;23.27;4.75;;;8.40;99.90;;;;;;4096571;28;20125;-70
2023/02/04 08:23:53;;;;;;;14.55;3.88;;;8.40;99.90;;;;;;4095908;28;20107;-70
2023/02/04 08:25:54;;;;;;;13.98;3.92;;;8.40;99.90;;;;;;4093369;28;20036;-70
2023/02/04 08:27:54;;;;;;;16.77;4.47;;;8.40;99.90;;;;;;4090065;28;20039;-71
2023/02/04 08:29:55;;;;;;;19.73;4.25;;;8.40;99.90;;;;;;4093761;29;20388;-70
2023/02/04 08:31:55;;;;;;;17.80;4.63;;;8.50;99.90;;;;;;4093318;28;20035;-70
2023/02/04 08:33:56;;;;;;;17.40;4.07;;;8.50;99.90;;;;;;4094535;28;20407;-70
2023/02/04 08:35:57;;;;;;;16.45;5.03;;;8.60;99.90;;;;;;4091965;28;20456;-71
2023/02/04 08:37:57;;;;;;;18.65;5.35;;;8.60;99.90;;;;;;4095826;28;20050;-70
2023/02/04 08:39:58;;;;;;;10.75;3.60;;;8.60;99.90;;;;;;4097010;28;20031;-70
2023/02/04 08:41:58;;;;;;;18.52;4.10;;;8.70;99.90;;;;;;4092276;28;20043;-70
2023/02/04 08:43:59;;;;;;;12.32;3.65;;;8.70;99.90;;;;;;4095155;28;20108;-70
2023/02/04 08:45:59;;;;;;;13.60;3.67;;;8.70;99.90;;;;;;4093305;28;20047;-70
2023/02/04 08:48:00;;;;;;;19.75;5.20;;;8.70;99.90;;;;;;4098191;28;20118;-70
2023/02/04 08:50:01;;;;;;;16.15;4.13;;;8.70;99.90;;;;;;4098245;28;20035;-70
2023/02/04 08:52:03;;;;;;;18.92;4.63;;;8.70;99.90;;;;;;4091467;28;20098;-71
2023/02/04 08:54:03;;;;;;;20.25;5.03;;;8.70;99.90;;;;;;4098236;28;20035;-71
2023/02/04 08:56:04;;;;;;;16.50;3.95;;;8.70;99.90;;;;;;4091108;28;20178;-71
2023/02/04 08:58:05;;;;;;;26.85;5.10;;;8.70;99.90;;;;;;4095065;28;20047;-71
2023/02/04 09:00:07;;;;;;;21.65;4.78;;;8.70;99.90;;;;;;4095485;28;20035;-70
2023/02/04 09:02:09;;;;;;;21.63;5.10;;;8.80;99.90;;;;;;4094869;28;20039;-69
2023/02/04 09:04:09;;;;;;;17.35;5.00;;;8.70;99.90;;;;;;4094685;28;20046;-71
2023/02/04 09:06:10;;;;;;;22.92;5.60;;;8.70;99.90;;;;;;4093367;28;20103;-70
2023/02/04 09:08:11;;;;;;;30.75;6.45;;;8.70;99.90;;;;;;4100096;28;20043;-71
2023/02/04 09:10:11;;;;;;;23.77;5.53;;;8.70;99.90;;;;;;4093855;28;20166;-72
2023/02/04 09:12:12;;;;;;;25.55;5.55;;;8.70;99.90;;;;;;4098156;28;20019;-71
2023/02/04 09:14:12;;;;;;;22.48;5.25;;;8.70;99.90;;;;;;4097319;28;20054;-71
2023/02/04 09:16:13;;;;;;;20.30;4.85;;;8.70;99.90;;;;;;4093978;28;20032;-71
2023/02/04 09:18:16;;;;;;;21.38;5.32;;;8.70;99.90;;;;;;4096098;28;20047;-70
2023/02/04 09:20:16;;;;;;;;;;;8.60;99.90;;;;;;4097096;28;20034;-71
2023/02/04 09:22:17;;;;;;;18.25;5.13;;;8.70;99.90;;;;;;4095828;28;19918;-71
2023/02/04 09:24:17;;;;;;;25.52;6.90;;;8.70;99.90;;;;;;4092281;28;20023;-71
2023/02/04 09:26:18;;;;;;;19.48;5.05;;;8.70;99.90;;;;;;4092546;28;20118;-70
2023/02/04 09:28:19;;;;;;;29.80;6.72;;;8.70;99.90;;;;;;4094395;28;20032;-71
2023/02/04 09:30:19;;;;;;;32.67;7.20;;;8.70;99.90;;;;;;4097324;28;20036;-67
2023/02/04 09:32:20;;;;;;;16.48;4.50;;;8.70;99.90;;;;;;4095940;28;20031;-69
2023/02/04 09:34:21;;;;;;;33.60;10.93;;;8.70;99.90;;;;;;4092163;28;20115;-70
2023/02/04 09:36:22;;;;;;;31.17;8.75;;;8.70;99.90;;;;;;4091252;28;20027;-70
2023/02/04 09:38:22;;;;;;;22.27;6.32;;;8.70;99.90;;;;;;4093156;28;20094;-71
2023/02/04 09:40:26;;;;;;;23.40;5.78;;;8.80;99.90;;;;;;4092613;28;20044;-70
2023/02/04 09:42:27;;;;;;;22.23;5.60;;;8.70;99.90;;;;;;4094198;28;20563;-70
2023/02/04 09:44:28;;;;;;;24.90;6.03;;;8.70;99.90;;;;;;4089604;28;20047;-70
2023/02/04 09:46:30;;;;;;;24.27;5.82;;;8.70;99.90;;;;;;4092973;28;20047;-71
2023/02/04 09:48:31;;;;;;;31.57;8.37;;;8.80;99.90;;;;;;4094303;28;20027;-71
2023/02/04 09:50:32;;;;;;;28.40;6.32;;;8.80;99.90;;;;;;4093625;28;20263;-70
2023/02/04 09:52:33;;;;;;;24.98;6.90;;;8.80;99.90;;;;;;4095623;28;20043;-71
2023/02/04 09:54:33;;;;;;;21.98;6.05;;;8.80;99.90;;;;;;4096380;28;20427;-70
2023/02/04 09:56:34;;;;;;;26.90;6.07;;;8.80;99.90;;;;;;4092607;28;20047;-71
2023/02/04 09:58:35;;;;;;;19.98;5.72;;;8.90;99.90;;;;;;4095751;28;20043;-70
2023/02/04 10:00:35;;;;;;;18.08;6.40;;;8.90;99.90;;;;;;4094272;28;20443;-71
2023/02/04 10:02:36;;;;;;;25.52;6.72;;;9.00;99.90;;;;;;4078904;29;20404;-71
2023/02/04 10:04:36;;;;;;;28.55;6.47;;;9.10;99.90;;;;;;4092074;28;20031;-71
2023/02/04 10:06:38;;;;;;;25.23;7.03;;;9.10;99.90;;;;;;4092267;28;20554;-68
2023/02/04 10:08:40;;;;;;;23.38;6.68;;;9.20;99.90;;;;;;4094786;29;20688;-71
2023/02/04 10:10:41;;;;;;;34.10;8.32;;;9.20;99.90;;;;;;4092636;28;20050;-71
2023/02/04 10:12:42;;;;;;;25.15;6.93;;;9.30;99.90;;;;;;4095296;28;20110;-71
2023/02/04 10:14:43;;;;;;;36.05;8.25;;;9.30;99.90;;;;;;4093669;28;20031;-70
2023/02/04 10:16:51;;;;;;;32.05;7.88;;;9.30;99.90;;;;;;4094894;28;20042;-70
2023/02/04 10:18:51;;;;;;;31.35;7.10;;;9.30;99.90;;;;;;4093528;28;20036;-70
2023/02/04 10:21:13;;;;;;;23.00;6.47;;;9.30;99.90;;;;;;4092938;28;20053;-69
2023/02/04 10:23:14;;;;;;;21.60;5.80;;;9.40;99.90;;;;;;4093553;28;20493;-71
2023/02/04 10:25:17;;;;;;;27.77;6.80;;;9.40;99.90;;;;;;4090294;28;20112;-71
2023/02/04 10:27:18;;;;;;;25.67;6.43;;;9.40;99.90;;;;;;4093441;28;20464;-70
2023/02/04 10:29:25;;;;;;;21.15;6.32;;;9.40;99.90;;;;;;4094438;28;20030;-70
2023/02/04 10:31:40;;;;;;;27.88;6.75;;;9.40;99.90;;;;;;4091592;28;20114;-70